MTN7305 KEWR-KBWI
Flight info
| Callsign | MTN7305 |
|---|---|
| Flight time | 1h 9m |
| Altitude | 6000 |
| Route | ELVAE/N0172F070 NECCK/N0173F060 WHITE T303 LEEAH T358 SWANN |
| Aircraft | C208/L-SDFGR/C |
Departure
| Time | 2026-04-20 21:55 |
|---|---|
| Airport | Newark Liberty International Airport (KEWR) |
Arrival
| Time | 2026-04-20 23:04 |
|---|---|
| Airport | Baltimore/Washington International Thurgood Marshall Airport (KBWI) |
| Time | Latitude | Longitude | Altitude | Speed | Heading |
|---|---|---|---|---|---|
| 2026-04-20 21:44 | 40.67994 | -74.18026 | 20 ft | 0 kts | 115° |
| 2026-04-20 21:50 | 40.67989 | -74.18027 | 20 ft | 2 kts | 235° |
| 2026-04-20 21:50 | 40.68001 | -74.18073 | 20 ft | 8 kts | 243° |
| 2026-04-20 21:51 | 40.67927 | -74.18138 | 20 ft | 17 kts | 207° |
| 2026-04-20 21:51 | 40.67873 | -74.18084 | 20 ft | 7 kts | 116° |
| 2026-04-20 21:51 | 40.67831 | -74.18040 | 20 ft | 12 kts | 200° |
| 2026-04-20 21:51 | 40.67728 | -74.18108 | 22 ft | 20 kts | 206° |
| 2026-04-20 21:52 | 40.67680 | -74.18136 | 21 ft | 6 kts | 195° |
| 2026-04-20 21:52 | 40.67620 | -74.18077 | 18 ft | 13 kts | 130° |
| 2026-04-20 21:52 | 40.67598 | -74.18043 | 18 ft | 0 kts | 130° |
| 2026-04-20 21:53 | 40.67597 | -74.18042 | 18 ft | 2 kts | 130° |
| 2026-04-20 21:53 | 40.67555 | -74.17939 | 19 ft | 12 kts | 71° |
| 2026-04-20 21:53 | 40.67569 | -74.17923 | 19 ft | 0 kts | 24° |
| 2026-04-20 21:53 | 40.67712 | -74.17831 | 16 ft | 48 kts | 26° |
| 2026-04-20 21:54 | 40.68145 | -74.17559 | 32 ft | 84 kts | 22° |
| 2026-04-20 21:54 | 40.68677 | -74.17202 | 177 ft | 90 kts | 27° |
| 2026-04-20 21:54 | 40.69241 | -74.16814 | 332 ft | 96 kts | 24° |
| 2026-04-20 21:54 | 40.69851 | -74.16415 | 487 ft | 103 kts | 25° |
| 2026-04-20 21:55 | 40.70512 | -74.16051 | 715 ft | 103 kts | 2° |
| 2026-04-20 21:55 | 40.71138 | -74.16430 | 935 ft | 103 kts | 303° |
| 2026-04-20 21:55 | 40.71200 | -74.17346 | 1116 ft | 109 kts | 246° |
| 2026-04-20 21:55 | 40.70675 | -74.18119 | 1299 ft | 114 kts | 206° |
| 2026-04-20 21:56 | 40.70020 | -74.18633 | 1633 ft | 105 kts | 212° |
| 2026-04-20 21:56 | 40.69436 | -74.19116 | 1951 ft | 98 kts | 212° |
| 2026-04-20 21:56 | 40.68788 | -74.19651 | 1989 ft | 120 kts | 212° |
| 2026-04-20 21:56 | 40.68102 | -74.20238 | 2278 ft | 114 kts | 212° |
| 2026-04-20 21:57 | 40.67438 | -74.20733 | 2573 ft | 109 kts | 208° |
| 2026-04-20 21:57 | 40.66767 | -74.21183 | 2823 ft | 108 kts | 204° |
| 2026-04-20 21:57 | 40.66071 | -74.21548 | 3037 ft | 111 kts | 201° |
| 2026-04-20 21:57 | 40.65341 | -74.21906 | 3244 ft | 114 kts | 202° |
| 2026-04-20 21:58 | 40.64563 | -74.22319 | 3370 ft | 123 kts | 201° |
| 2026-04-20 21:58 | 40.63755 | -74.22708 | 3572 ft | 124 kts | 202° |
| 2026-04-20 21:58 | 40.62948 | -74.23134 | 3782 ft | 126 kts | 203° |
| 2026-04-20 21:58 | 40.62119 | -74.23598 | 3891 ft | 132 kts | 203° |
| 2026-04-20 21:59 | 40.61290 | -74.24059 | 4153 ft | 127 kts | 203° |
| 2026-04-20 21:59 | 40.60490 | -74.24492 | 4427 ft | 122 kts | 202° |
| 2026-04-20 21:59 | 40.59721 | -74.24899 | 4693 ft | 117 kts | 202° |
| 2026-04-20 21:59 | 40.58981 | -74.25288 | 4973 ft | 112 kts | 202° |
| 2026-04-20 22:00 | 40.58274 | -74.25662 | 5245 ft | 107 kts | 202° |
| 2026-04-20 22:00 | 40.57837 | -74.25897 | 5458 ft | 98 kts | 202° |
| 2026-04-20 22:00 | 40.57027 | -74.26339 | 5755 ft | 95 kts | 203° |
| 2026-04-20 22:00 | 40.56420 | -74.26674 | 5952 ft | 92 kts | 202° |
| 2026-04-20 22:01 | 40.55812 | -74.27006 | 6046 ft | 104 kts | 202° |
| 2026-04-20 22:01 | 40.55090 | -74.27395 | 6095 ft | 120 kts | 202° |
| 2026-04-20 22:01 | 40.54251 | -74.27730 | 6154 ft | 133 kts | 181° |
| 2026-04-20 22:01 | 40.53346 | -74.27327 | 6216 ft | 143 kts | 156° |
| 2026-04-20 22:02 | 40.52421 | -74.26771 | 6292 ft | 149 kts | 155° |
| 2026-04-20 22:02 | 40.51444 | -74.26165 | 6214 ft | 163 kts | 155° |
| 2026-04-20 22:02 | 40.50381 | -74.25526 | 6094 ft | 173 kts | 157° |
| 2026-04-20 22:02 | 40.49248 | -74.24922 | 5979 ft | 178 kts | 159° |
| 2026-04-20 22:03 | 40.48486 | -74.24544 | 5991 ft | 175 kts | 160° |
| 2026-04-20 22:03 | 40.46979 | -74.23831 | 5998 ft | 173 kts | 160° |
| 2026-04-20 22:03 | 40.45851 | -74.23291 | 5997 ft | 172 kts | 160° |
| 2026-04-20 22:03 | 40.44733 | -74.22733 | 6002 ft | 172 kts | 159° |
| 2026-04-20 22:04 | 40.43613 | -74.22161 | 6005 ft | 173 kts | 159° |
| 2026-04-20 22:04 | 40.42493 | -74.21592 | 6000 ft | 173 kts | 159° |
| 2026-04-20 22:04 | 40.41748 | -74.21220 | 6000 ft | 173 kts | 160° |
| 2026-04-20 22:04 | 40.40623 | -74.20668 | 6000 ft | 173 kts | 160° |
| 2026-04-20 22:05 | 40.39499 | -74.20122 | 6000 ft | 172 kts | 160° |
| 2026-04-20 22:05 | 40.38012 | -74.19390 | 5997 ft | 172 kts | 160° |
| 2026-04-20 22:05 | 40.36892 | -74.18831 | 6001 ft | 172 kts | 159° |
| 2026-04-20 22:05 | 40.36150 | -74.18460 | 5999 ft | 172 kts | 159° |
| 2026-04-20 22:06 | 40.34654 | -74.17717 | 6002 ft | 172 kts | 160° |
| 2026-04-20 22:06 | 40.33911 | -74.17351 | 6000 ft | 172 kts | 160° |
| 2026-04-20 22:06 | 40.32789 | -74.16801 | 6001 ft | 172 kts | 160° |
| 2026-04-20 22:06 | 40.31669 | -74.16247 | 6000 ft | 172 kts | 160° |
| 2026-04-20 22:07 | 40.30534 | -74.15775 | 5998 ft | 171 kts | 175° |
| 2026-04-20 22:07 | 40.28997 | -74.16167 | 5999 ft | 170 kts | 195° |
| 2026-04-20 22:07 | 40.28229 | -74.16456 | 6001 ft | 170 kts | 197° |
| 2026-04-20 22:07 | 40.26729 | -74.17061 | 5999 ft | 170 kts | 198° |
| 2026-04-20 22:08 | 40.25968 | -74.17380 | 5999 ft | 170 kts | 198° |
| 2026-04-20 22:08 | 40.24853 | -74.17845 | 6002 ft | 170 kts | 197° |
| 2026-04-20 22:08 | 40.23708 | -74.18256 | 6002 ft | 171 kts | 194° |
| 2026-04-20 22:08 | 40.22551 | -74.18612 | 5998 ft | 171 kts | 193° |
| 2026-04-20 22:09 | 40.21391 | -74.18940 | 6005 ft | 171 kts | 192° |
| 2026-04-20 22:09 | 40.20224 | -74.19265 | 6001 ft | 171 kts | 193° |
| 2026-04-20 22:09 | 40.19060 | -74.19611 | 6003 ft | 172 kts | 193° |
| 2026-04-20 22:09 | 40.17897 | -74.19969 | 5997 ft | 171 kts | 194° |
| 2026-04-20 22:10 | 40.16737 | -74.20331 | 5998 ft | 171 kts | 194° |
| 2026-04-20 22:10 | 40.15595 | -74.20680 | 6002 ft | 171 kts | 193° |
| 2026-04-20 22:10 | 40.14433 | -74.21023 | 6002 ft | 171 kts | 193° |
| 2026-04-20 22:10 | 40.13270 | -74.21365 | 6000 ft | 171 kts | 193° |
| 2026-04-20 22:11 | 40.12106 | -74.21707 | 5998 ft | 171 kts | 193° |
| 2026-04-20 22:11 | 40.10946 | -74.22055 | 6004 ft | 171 kts | 193° |
| 2026-04-20 22:11 | 40.09782 | -74.22408 | 5997 ft | 171 kts | 193° |
| 2026-04-20 22:11 | 40.08621 | -74.22758 | 5998 ft | 171 kts | 193° |
| 2026-04-20 22:12 | 40.07462 | -74.23104 | 6000 ft | 171 kts | 193° |
| 2026-04-20 22:12 | 40.06301 | -74.23450 | 5996 ft | 171 kts | 193° |
| 2026-04-20 22:12 | 40.05157 | -74.23790 | 6002 ft | 171 kts | 193° |
| 2026-04-20 22:12 | 40.03996 | -74.24136 | 6000 ft | 171 kts | 193° |
| 2026-04-20 22:13 | 40.02833 | -74.24484 | 6004 ft | 172 kts | 193° |
| 2026-04-20 22:13 | 40.01669 | -74.24833 | 6002 ft | 172 kts | 193° |
| 2026-04-20 22:13 | 40.00503 | -74.25176 | 6000 ft | 172 kts | 193° |
| 2026-04-20 22:13 | 39.99458 | -74.25879 | 5999 ft | 171 kts | 218° |
| 2026-04-20 22:14 | 39.98527 | -74.26834 | 6001 ft | 170 kts | 219° |
| 2026-04-20 22:14 | 39.97617 | -74.27824 | 5999 ft | 170 kts | 220° |
| 2026-04-20 22:14 | 39.96716 | -74.28831 | 6000 ft | 170 kts | 220° |
| 2026-04-20 22:14 | 39.95807 | -74.29790 | 5999 ft | 170 kts | 218° |
| 2026-04-20 22:15 | 39.94861 | -74.30717 | 5998 ft | 170 kts | 216° |
| 2026-04-20 22:15 | 39.93897 | -74.31613 | 5997 ft | 170 kts | 216° |
| 2026-04-20 22:15 | 39.92934 | -74.32501 | 5997 ft | 170 kts | 216° |
| 2026-04-20 22:15 | 39.91978 | -74.33400 | 6000 ft | 169 kts | 216° |
| 2026-04-20 22:16 | 39.91030 | -74.34314 | 6000 ft | 169 kts | 217° |
| 2026-04-20 22:16 | 39.90085 | -74.35231 | 6000 ft | 169 kts | 217° |
| 2026-04-20 22:16 | 39.89137 | -74.36142 | 6001 ft | 170 kts | 217° |
| 2026-04-20 22:16 | 39.88195 | -74.37034 | 5999 ft | 170 kts | 216° |
| 2026-04-20 22:17 | 39.87238 | -74.37933 | 5998 ft | 170 kts | 216° |
| 2026-04-20 22:17 | 39.86283 | -74.38835 | 5999 ft | 169 kts | 216° |
| 2026-04-20 22:17 | 39.85334 | -74.39741 | 6004 ft | 170 kts | 217° |
| 2026-04-20 22:17 | 39.84377 | -74.40653 | 6003 ft | 170 kts | 217° |
| 2026-04-20 22:18 | 39.83421 | -74.41564 | 5999 ft | 170 kts | 216° |
| 2026-04-20 22:18 | 39.82466 | -74.42471 | 5997 ft | 170 kts | 216° |
| 2026-04-20 22:18 | 39.81510 | -74.43374 | 5999 ft | 170 kts | 216° |
| 2026-04-20 22:18 | 39.80555 | -74.44277 | 6000 ft | 170 kts | 216° |
| 2026-04-20 22:19 | 39.79600 | -74.45182 | 5998 ft | 170 kts | 216° |
| 2026-04-20 22:19 | 39.78650 | -74.46080 | 5999 ft | 169 kts | 216° |
| 2026-04-20 22:19 | 39.77710 | -74.46969 | 6000 ft | 169 kts | 216° |
| 2026-04-20 22:19 | 39.76757 | -74.47869 | 6001 ft | 169 kts | 216° |
| 2026-04-20 22:20 | 39.75803 | -74.48771 | 6003 ft | 170 kts | 216° |
| 2026-04-20 22:20 | 39.74849 | -74.49670 | 6003 ft | 170 kts | 216° |
| 2026-04-20 22:20 | 39.73893 | -74.50574 | 6001 ft | 170 kts | 216° |
| 2026-04-20 22:20 | 39.72938 | -74.51477 | 5998 ft | 170 kts | 216° |
| 2026-04-20 22:21 | 39.71981 | -74.52378 | 6004 ft | 170 kts | 216° |
| 2026-04-20 22:21 | 39.71023 | -74.53283 | 5999 ft | 170 kts | 216° |
| 2026-04-20 22:21 | 39.70066 | -74.54185 | 5998 ft | 170 kts | 216° |
| 2026-04-20 22:21 | 39.69123 | -74.55073 | 5997 ft | 170 kts | 216° |
| 2026-04-20 22:22 | 39.68168 | -74.55973 | 5997 ft | 170 kts | 216° |
| 2026-04-20 22:22 | 39.67215 | -74.56871 | 6000 ft | 169 kts | 216° |
| 2026-04-20 22:22 | 39.66259 | -74.57770 | 5999 ft | 169 kts | 216° |
| 2026-04-20 22:22 | 39.65307 | -74.58667 | 6000 ft | 169 kts | 216° |
| 2026-04-20 22:23 | 39.64353 | -74.59565 | 5999 ft | 169 kts | 216° |
| 2026-04-20 22:23 | 39.63399 | -74.60462 | 5999 ft | 169 kts | 216° |
| 2026-04-20 22:23 | 39.62445 | -74.61359 | 6000 ft | 169 kts | 216° |
| 2026-04-20 22:23 | 39.61502 | -74.62245 | 6001 ft | 169 kts | 216° |
| 2026-04-20 22:24 | 39.60548 | -74.63139 | 6001 ft | 170 kts | 216° |
| 2026-04-20 22:24 | 39.59592 | -74.64036 | 6000 ft | 169 kts | 216° |
| 2026-04-20 22:24 | 39.58640 | -74.64934 | 6000 ft | 169 kts | 216° |
| 2026-04-20 22:24 | 39.57683 | -74.65829 | 5998 ft | 169 kts | 216° |
| 2026-04-20 22:25 | 39.56728 | -74.66725 | 5999 ft | 169 kts | 216° |
| 2026-04-20 22:25 | 39.55775 | -74.67622 | 6000 ft | 169 kts | 216° |
| 2026-04-20 22:25 | 39.54821 | -74.68519 | 6000 ft | 170 kts | 216° |
| 2026-04-20 22:25 | 39.53864 | -74.69414 | 6001 ft | 170 kts | 216° |
| 2026-04-20 22:26 | 39.52908 | -74.70307 | 6000 ft | 169 kts | 216° |
| 2026-04-20 22:26 | 39.51964 | -74.71190 | 6001 ft | 169 kts | 216° |
| 2026-04-20 22:26 | 39.51010 | -74.72084 | 6000 ft | 169 kts | 216° |
| 2026-04-20 22:27 | 39.49100 | -74.73873 | 5998 ft | 169 kts | 216° |
| 2026-04-20 22:27 | 39.48144 | -74.74766 | 6000 ft | 169 kts | 216° |
| 2026-04-20 22:27 | 39.47190 | -74.75659 | 6001 ft | 169 kts | 216° |
| 2026-04-20 22:27 | 39.46233 | -74.76552 | 5998 ft | 169 kts | 216° |
| 2026-04-20 22:28 | 39.45277 | -74.77443 | 6002 ft | 170 kts | 216° |
| 2026-04-20 22:28 | 39.44321 | -74.78339 | 6002 ft | 170 kts | 216° |
| 2026-04-20 22:28 | 39.43365 | -74.79233 | 6001 ft | 170 kts | 216° |
| 2026-04-20 22:28 | 39.42422 | -74.80112 | 6000 ft | 170 kts | 216° |
| 2026-04-20 22:29 | 39.41462 | -74.81006 | 6000 ft | 169 kts | 216° |
| 2026-04-20 22:29 | 39.40508 | -74.81895 | 6004 ft | 170 kts | 216° |
| 2026-04-20 22:29 | 39.39550 | -74.82789 | 6001 ft | 170 kts | 216° |
| 2026-04-20 22:29 | 39.38592 | -74.83683 | 6000 ft | 170 kts | 216° |
| 2026-04-20 22:30 | 39.37635 | -74.84576 | 6000 ft | 170 kts | 216° |
| 2026-04-20 22:30 | 39.36677 | -74.85467 | 6002 ft | 170 kts | 216° |
| 2026-04-20 22:30 | 39.35719 | -74.86360 | 5999 ft | 170 kts | 216° |
| 2026-04-20 22:30 | 39.34762 | -74.87249 | 6002 ft | 170 kts | 216° |
| 2026-04-20 22:31 | 39.33803 | -74.88141 | 6000 ft | 170 kts | 216° |
| 2026-04-20 22:31 | 39.32843 | -74.89033 | 6001 ft | 170 kts | 216° |
| 2026-04-20 22:31 | 39.31898 | -74.89913 | 5999 ft | 170 kts | 216° |
| 2026-04-20 22:31 | 39.30939 | -74.90806 | 5998 ft | 170 kts | 216° |
| 2026-04-20 22:32 | 39.29981 | -74.91695 | 5997 ft | 169 kts | 216° |
| 2026-04-20 22:32 | 39.29025 | -74.92582 | 5999 ft | 169 kts | 216° |
| 2026-04-20 22:32 | 39.28067 | -74.93471 | 6000 ft | 169 kts | 216° |
| 2026-04-20 22:32 | 39.27111 | -74.94359 | 6000 ft | 169 kts | 216° |
| 2026-04-20 22:33 | 39.26185 | -74.95297 | 5997 ft | 169 kts | 227° |
| 2026-04-20 22:33 | 39.25725 | -74.96651 | 6001 ft | 168 kts | 265° |
| 2026-04-20 22:33 | 39.25669 | -74.98137 | 6002 ft | 168 kts | 268° |
| 2026-04-20 22:33 | 39.25654 | -74.99650 | 6005 ft | 169 kts | 270° |
| 2026-04-20 22:34 | 39.25664 | -75.01165 | 6004 ft | 169 kts | 270° |
| 2026-04-20 22:34 | 39.25682 | -75.02688 | 5998 ft | 169 kts | 270° |
| 2026-04-20 22:34 | 39.25659 | -75.04206 | 5998 ft | 169 kts | 268° |
| 2026-04-20 22:34 | 39.25594 | -75.05723 | 6000 ft | 169 kts | 266° |
| 2026-04-20 22:35 | 39.25503 | -75.07238 | 6003 ft | 170 kts | 265° |
| 2026-04-20 22:35 | 39.25407 | -75.08754 | 5996 ft | 169 kts | 265° |
| 2026-04-20 22:35 | 39.25324 | -75.10266 | 5997 ft | 169 kts | 266° |
| 2026-04-20 22:35 | 39.25255 | -75.11758 | 5998 ft | 169 kts | 266° |
| 2026-04-20 22:36 | 39.25189 | -75.13270 | 6000 ft | 169 kts | 266° |
| 2026-04-20 22:36 | 39.25118 | -75.14780 | 6000 ft | 169 kts | 266° |
| 2026-04-20 22:36 | 39.25039 | -75.16292 | 6001 ft | 169 kts | 266° |
| 2026-04-20 22:36 | 39.24954 | -75.17804 | 6001 ft | 169 kts | 265° |
| 2026-04-20 22:37 | 39.24872 | -75.19315 | 6000 ft | 169 kts | 266° |
| 2026-04-20 22:37 | 39.24793 | -75.20826 | 5999 ft | 169 kts | 266° |
| 2026-04-20 22:37 | 39.24718 | -75.22337 | 5999 ft | 169 kts | 266° |
| 2026-04-20 22:37 | 39.24645 | -75.23827 | 5998 ft | 169 kts | 266° |
| 2026-04-20 22:38 | 39.24567 | -75.25336 | 6000 ft | 169 kts | 266° |
| 2026-04-20 22:38 | 39.24487 | -75.26847 | 5998 ft | 169 kts | 266° |
| 2026-04-20 22:38 | 39.24405 | -75.28357 | 6000 ft | 169 kts | 266° |
| 2026-04-20 22:38 | 39.24325 | -75.29864 | 6000 ft | 169 kts | 266° |
| 2026-04-20 22:39 | 39.24246 | -75.31374 | 6000 ft | 169 kts | 266° |
| 2026-04-20 22:39 | 39.24168 | -75.32883 | 6000 ft | 169 kts | 266° |
| 2026-04-20 22:39 | 39.24089 | -75.34390 | 6000 ft | 169 kts | 266° |
| 2026-04-20 22:39 | 39.24009 | -75.35899 | 6000 ft | 169 kts | 266° |
| 2026-04-20 22:40 | 39.23929 | -75.37389 | 6000 ft | 169 kts | 266° |
| 2026-04-20 22:40 | 39.23848 | -75.38896 | 6000 ft | 169 kts | 266° |
| 2026-04-20 22:40 | 39.23768 | -75.40406 | 6000 ft | 169 kts | 266° |
| 2026-04-20 22:40 | 39.23687 | -75.41914 | 6001 ft | 169 kts | 266° |
| 2026-04-20 22:41 | 39.23607 | -75.43424 | 6000 ft | 169 kts | 266° |
| 2026-04-20 22:41 | 39.23526 | -75.44933 | 6001 ft | 169 kts | 266° |
| 2026-04-20 22:41 | 39.23444 | -75.46445 | 6001 ft | 169 kts | 266° |
| 2026-04-20 22:41 | 39.23363 | -75.47955 | 6001 ft | 169 kts | 265° |
| 2026-04-20 22:42 | 39.23280 | -75.49468 | 6003 ft | 169 kts | 266° |
| 2026-04-20 22:42 | 39.23198 | -75.50982 | 6003 ft | 169 kts | 266° |
| 2026-04-20 22:42 | 39.23103 | -75.52477 | 6003 ft | 170 kts | 262° |
| 2026-04-20 22:42 | 39.22916 | -75.53986 | 6003 ft | 170 kts | 260° |
| 2026-04-20 22:43 | 39.22720 | -75.55490 | 5999 ft | 170 kts | 261° |
| 2026-04-20 22:43 | 39.22544 | -75.56999 | 6000 ft | 170 kts | 262° |
| 2026-04-20 22:43 | 39.22394 | -75.58510 | 6002 ft | 170 kts | 263° |
| 2026-04-20 22:43 | 39.22247 | -75.60024 | 5999 ft | 170 kts | 263° |
| 2026-04-20 22:44 | 39.22090 | -75.61534 | 5999 ft | 170 kts | 262° |
| 2026-04-20 22:44 | 39.21918 | -75.63038 | 5997 ft | 170 kts | 261° |
| 2026-04-20 22:44 | 39.21845 | -75.64545 | 6056 ft | 166 kts | 269° |
| 2026-04-20 22:44 | 39.21826 | -75.66008 | 6187 ft | 161 kts | 268° |
| 2026-04-20 22:45 | 39.21787 | -75.67434 | 6288 ft | 159 kts | 267° |
| 2026-04-20 22:45 | 39.21723 | -75.68870 | 6250 ft | 166 kts | 266° |
| 2026-04-20 22:45 | 39.21647 | -75.70387 | 6150 ft | 173 kts | 266° |
| 2026-04-20 22:45 | 39.21575 | -75.71955 | 6003 ft | 178 kts | 266° |
| 2026-04-20 22:46 | 39.21511 | -75.73586 | 5807 ft | 184 kts | 267° |
| 2026-04-20 22:46 | 39.21461 | -75.75231 | 5690 ft | 182 kts | 268° |
| 2026-04-20 22:46 | 39.21410 | -75.76829 | 5699 ft | 176 kts | 267° |
| 2026-04-20 22:46 | 39.21349 | -75.78390 | 5701 ft | 173 kts | 267° |
| 2026-04-20 22:47 | 39.21283 | -75.79933 | 5704 ft | 172 kts | 266° |
| 2026-04-20 22:47 | 39.21217 | -75.81468 | 5698 ft | 171 kts | 266° |
| 2026-04-20 22:47 | 39.21155 | -75.82993 | 5699 ft | 170 kts | 267° |
| 2026-04-20 22:47 | 39.21099 | -75.84492 | 5700 ft | 170 kts | 267° |
| 2026-04-20 22:48 | 39.21044 | -75.86010 | 5700 ft | 169 kts | 267° |
| 2026-04-20 22:48 | 39.20986 | -75.87528 | 5700 ft | 169 kts | 267° |
| 2026-04-20 22:48 | 39.20925 | -75.89042 | 5699 ft | 169 kts | 266° |
| 2026-04-20 22:48 | 39.20862 | -75.90557 | 5704 ft | 169 kts | 267° |
| 2026-04-20 22:49 | 39.20800 | -75.92072 | 5700 ft | 169 kts | 267° |
| 2026-04-20 22:49 | 39.20739 | -75.93590 | 5700 ft | 170 kts | 267° |
| 2026-04-20 22:49 | 39.20680 | -75.95108 | 5697 ft | 169 kts | 267° |
| 2026-04-20 22:49 | 39.20621 | -75.96622 | 5701 ft | 169 kts | 267° |
| 2026-04-20 22:50 | 39.20559 | -75.98135 | 5701 ft | 169 kts | 267° |
| 2026-04-20 22:50 | 39.20497 | -75.99652 | 5702 ft | 169 kts | 266° |
| 2026-04-20 22:50 | 39.20436 | -76.01150 | 5700 ft | 170 kts | 267° |
| 2026-04-20 22:50 | 39.20372 | -76.02668 | 5697 ft | 169 kts | 266° |
| 2026-04-20 22:51 | 39.20310 | -76.04181 | 5701 ft | 169 kts | 267° |
| 2026-04-20 22:51 | 39.20250 | -76.05700 | 5699 ft | 169 kts | 267° |
| 2026-04-20 22:51 | 39.20188 | -76.07214 | 5697 ft | 169 kts | 266° |
| 2026-04-20 22:51 | 39.20126 | -76.08727 | 5701 ft | 169 kts | 267° |
| 2026-04-20 22:52 | 39.20063 | -76.10241 | 5699 ft | 169 kts | 266° |
| 2026-04-20 22:52 | 39.19998 | -76.11756 | 5703 ft | 169 kts | 266° |
| 2026-04-20 22:52 | 39.19935 | -76.13270 | 5699 ft | 169 kts | 267° |
| 2026-04-20 22:52 | 39.19873 | -76.14766 | 5703 ft | 169 kts | 267° |
| 2026-04-20 22:53 | 39.19811 | -76.16284 | 5701 ft | 170 kts | 266° |
| 2026-04-20 22:53 | 39.19747 | -76.17801 | 5697 ft | 169 kts | 266° |
| 2026-04-20 22:53 | 39.19679 | -76.19315 | 5700 ft | 169 kts | 265° |
| 2026-04-20 22:53 | 39.19291 | -76.20729 | 5700 ft | 169 kts | 242° |
| 2026-04-20 22:54 | 39.18729 | -76.22061 | 5697 ft | 169 kts | 240° |
| 2026-04-20 22:54 | 39.18139 | -76.23373 | 5700 ft | 169 kts | 239° |
| 2026-04-20 22:54 | 39.17536 | -76.24673 | 5704 ft | 170 kts | 239° |
| 2026-04-20 22:54 | 39.16922 | -76.25974 | 5702 ft | 170 kts | 239° |
| 2026-04-20 22:55 | 39.16304 | -76.27273 | 5699 ft | 170 kts | 239° |
| 2026-04-20 22:55 | 39.15687 | -76.28566 | 5696 ft | 169 kts | 238° |
| 2026-04-20 22:55 | 39.15080 | -76.29838 | 5697 ft | 169 kts | 238° |
| 2026-04-20 22:55 | 39.14465 | -76.31123 | 5697 ft | 168 kts | 238° |
| 2026-04-20 22:56 | 39.13852 | -76.32404 | 5698 ft | 168 kts | 238° |
| 2026-04-20 22:56 | 39.13239 | -76.33685 | 5699 ft | 168 kts | 238° |
| 2026-04-20 22:56 | 39.12626 | -76.34965 | 5699 ft | 168 kts | 238° |
| 2026-04-20 22:56 | 39.12014 | -76.36247 | 5700 ft | 168 kts | 238° |
| 2026-04-20 22:57 | 39.11398 | -76.37540 | 5559 ft | 171 kts | 240° |
| 2026-04-20 22:57 | 39.11148 | -76.39001 | 5330 ft | 170 kts | 272° |
| 2026-04-20 22:57 | 39.11208 | -76.40518 | 5106 ft | 170 kts | 274° |
| 2026-04-20 22:57 | 39.11246 | -76.41997 | 4877 ft | 158 kts | 269° |
| 2026-04-20 22:58 | 39.11206 | -76.43355 | 4644 ft | 151 kts | 267° |
| 2026-04-20 22:58 | 39.11143 | -76.44700 | 4338 ft | 150 kts | 266° |
| 2026-04-20 22:58 | 39.11069 | -76.46039 | 4038 ft | 150 kts | 266° |
| 2026-04-20 22:58 | 39.10992 | -76.47374 | 3741 ft | 149 kts | 266° |
| 2026-04-20 22:59 | 39.10913 | -76.48706 | 3440 ft | 149 kts | 265° |
| 2026-04-20 22:59 | 39.10833 | -76.50032 | 3143 ft | 149 kts | 265° |
| 2026-04-20 22:59 | 39.10753 | -76.51356 | 2842 ft | 148 kts | 265° |
| 2026-04-20 22:59 | 39.10661 | -76.52675 | 2535 ft | 148 kts | 265° |
| 2026-04-20 23:00 | 39.10695 | -76.53992 | 2240 ft | 147 kts | 277° |
| 2026-04-20 23:00 | 39.10823 | -76.55294 | 1969 ft | 145 kts | 277° |
| 2026-04-20 23:00 | 39.10943 | -76.56523 | 1785 ft | 134 kts | 277° |
| 2026-04-20 23:00 | 39.11079 | -76.57655 | 1662 ft | 122 kts | 280° |
| 2026-04-20 23:01 | 39.11358 | -76.58652 | 1558 ft | 116 kts | 293° |
| 2026-04-20 23:01 | 39.11746 | -76.59547 | 1456 ft | 114 kts | 308° |
| 2026-04-20 23:01 | 39.12289 | -76.60279 | 1358 ft | 112 kts | 316° |
| 2026-04-20 23:01 | 39.12889 | -76.60927 | 1258 ft | 113 kts | 321° |
| 2026-04-20 23:02 | 39.13515 | -76.61515 | 1175 ft | 110 kts | 323° |
| 2026-04-20 23:02 | 39.14154 | -76.62071 | 1045 ft | 112 kts | 325° |
| 2026-04-20 23:02 | 39.14787 | -76.62663 | 896 ft | 112 kts | 320° |
| 2026-04-20 23:02 | 39.15358 | -76.63235 | 784 ft | 99 kts | 323° |
| 2026-04-20 23:03 | 39.15914 | -76.63728 | 612 ft | 95 kts | 322° |
| 2026-04-20 23:03 | 39.16432 | -76.64227 | 437 ft | 92 kts | 323° |
| 2026-04-20 23:03 | 39.16941 | -76.64687 | 313 ft | 87 kts | 322° |
| 2026-04-20 23:03 | 39.17381 | -76.65097 | 204 ft | 70 kts | 321° |
| 2026-04-20 23:04 | 39.17753 | -76.65444 | 132 ft | 63 kts | 324° |
| 2026-04-20 23:04 | 39.18081 | -76.65745 | 132 ft | 56 kts | 324° |
| 2026-04-20 23:04 | 39.18417 | -76.66055 | 141 ft | 54 kts | 325° |
| 2026-04-20 23:04 | 39.18607 | -76.66229 | 143 ft | 21 kts | 324° |
| 2026-04-20 23:05 | 39.18704 | -76.66323 | 143 ft | 17 kts | 318° |
| 2026-04-20 23:05 | 39.18677 | -76.66413 | 145 ft | 10 kts | 198° |
| 2026-04-20 23:05 | 39.18605 | -76.66447 | 147 ft | 14 kts | 216° |
| 2026-04-20 23:05 | 39.18538 | -76.66561 | 156 ft | 18 kts | 235° |
| 2026-04-20 23:06 | 39.18459 | -76.66707 | 163 ft | 22 kts | 236° |
| 2026-04-20 23:06 | 39.18425 | -76.66855 | 167 ft | 12 kts | 309° |
| 2026-04-20 23:06 | 39.18492 | -76.66933 | 168 ft | 17 kts | 324° |
| 2026-04-20 23:06 | 39.18563 | -76.66925 | 168 ft | 10 kts | 53° |
| 2026-04-20 23:07 | 39.18579 | -76.66896 | 169 ft | 0 kts | 51° |